createdAt,value
2019-01-23T00:01:29.603Z,95895.77
2019-01-23T00:04:36.487Z,95891.13
2019-01-23T00:07:43.440Z,95889.25
2019-01-23T00:10:50.352Z,95896.84
2019-01-23T00:14:00.431Z,95894.41
2019-01-23T00:17:07.339Z,95895.84
2019-01-23T00:20:15.375Z,95894.45
2019-01-23T00:23:25.102Z,95890.80
2019-01-23T00:26:32.045Z,95890.59
2019-01-23T00:29:39.009Z,95882.02
2019-01-23T00:32:46.013Z,95878.94
2019-01-23T00:35:53.077Z,95872.55
2019-01-23T00:39:02.634Z,95872.48
2019-01-23T00:42:09.528Z,95879.34
2019-01-23T00:45:16.703Z,95881.07
2019-01-23T00:48:23.613Z,95883.42
2019-01-23T00:51:31.641Z,95880.00
2019-01-23T00:54:38.644Z,95871.02
2019-01-23T00:57:45.624Z,95869.23
2019-01-23T01:00:52.545Z,95861.64
2019-01-23T01:04:02.726Z,95864.86
2019-01-23T01:07:09.619Z,95858.53
2019-01-23T01:10:17.689Z,95860.59
2019-01-23T01:13:24.606Z,95865.36
2019-01-23T01:16:31.612Z,95863.98
2019-01-23T01:19:38.529Z,95863.47
2019-01-23T01:22:45.552Z,95861.19
2019-01-23T01:25:52.706Z,95851.16
2019-01-23T01:29:02.777Z,95845.92
2019-01-23T01:32:09.673Z,95842.33
2019-01-23T01:35:16.669Z,95845.27
2019-01-23T01:38:23.582Z,95836.37
2019-01-23T01:41:30.533Z,95834.31
2019-01-23T01:44:37.416Z,95832.26
2019-01-23T01:47:44.386Z,95825.59
2019-01-23T01:50:51.287Z,95829.76
2019-01-23T01:54:00.721Z,95829.23
2019-01-23T01:57:10.682Z,95822.95
2019-01-23T02:00:26.829Z,95833.59
2019-01-23T02:03:33.738Z,95820.00
2019-01-23T02:06:40.694Z,95815.09
2019-01-23T02:09:47.729Z,95815.63
2019-01-23T02:12:54.917Z,95809.91
2019-01-23T02:16:01.896Z,95799.95
2019-01-23T02:19:12.778Z,95798.53
2019-01-23T02:22:19.719Z,95798.53
2019-01-23T02:25:26.865Z,95795.47
2019-01-23T02:28:33.788Z,95788.63
2019-01-23T02:31:40.750Z,95782.14
2019-01-23T02:34:47.756Z,95781.32
2019-01-23T02:37:54.736Z,95781.25
2019-01-23T02:41:01.643Z,95770.87
2019-01-23T02:44:11.247Z,95765.66
2019-01-23T02:47:18.186Z,95762.73
2019-01-23T02:50:25.215Z,95761.33
2019-01-23T02:53:32.121Z,95756.20
2019-01-23T02:56:40.222Z,95747.56
2019-01-23T02:59:47.132Z,95736.31
2019-01-23T03:02:54.140Z,95746.92
2019-01-23T03:06:01.230Z,95747.14
2019-01-23T03:09:10.160Z,95749.08
2019-01-23T03:12:20.103Z,95742.28
2019-01-23T03:15:27.118Z,95741.70
2019-01-23T03:18:34.036Z,95740.08
2019-01-23T03:21:41.103Z,95740.06
2019-01-23T03:24:48.020Z,95736.21
2019-01-23T03:27:54.980Z,95729.75
2019-01-23T03:31:01.902Z,95730.63
2019-01-23T03:34:14.091Z,95729.81
2019-01-23T03:37:21.036Z,95729.38
2019-01-23T03:40:28.250Z,95727.72
2019-01-23T03:43:35.166Z,95717.80
2019-01-23T03:46:42.307Z,95711.61
2019-01-23T03:49:49.220Z,95716.39
2019-01-23T03:52:56.188Z,95717.41
2019-01-23T03:56:03.087Z,95718.11
2019-01-23T03:59:12.113Z,95716.45
2019-01-23T04:02:19.020Z,95716.38
2019-01-23T04:05:26.053Z,95712.02
2019-01-23T04:08:32.949Z,95708.89
2019-01-23T04:11:39.899Z,95706.86
2019-01-23T04:14:46.807Z,95702.42
2019-01-23T04:17:53.748Z,95704.70
2019-01-23T04:21:00.743Z,95693.71
2019-01-23T04:24:07.992Z,95699.20
2019-01-23T04:27:16.310Z,95692.06
2019-01-23T04:30:26.341Z,95697.67
2019-01-23T04:33:33.291Z,95688.47
2019-01-23T04:36:40.236Z,95697.15
2019-01-23T04:39:47.150Z,95692.63
2019-01-23T04:42:54.112Z,95693.95
2019-01-23T04:46:01.007Z,95682.02
2019-01-23T04:49:08.336Z,95688.59
2019-01-23T04:52:36.012Z,95680.15
2019-01-23T04:55:43.156Z,95678.07
2019-01-23T04:58:50.078Z,95677.43
2019-01-23T05:01:57.233Z,95673.30
2019-01-23T05:05:04.588Z,95673.36
2019-01-23T05:08:14.473Z,95671.83
2019-01-23T05:11:21.371Z,95665.48
2019-01-23T05:14:28.307Z,95662.42
2019-01-23T05:17:35.215Z,95669.31
2019-01-23T05:20:42.162Z,95668.50
2019-01-23T05:23:49.079Z,95668.83
2019-01-23T05:26:56.023Z,95662.24
2019-01-23T05:30:05.133Z,95662.63
2019-01-23T05:33:12.087Z,95656.37
2019-01-23T05:36:19.241Z,95663.66
2019-01-23T05:39:26.890Z,95663.03
2019-01-23T05:42:33.828Z,95659.59
2019-01-23T05:45:40.794Z,95661.16
2019-01-23T05:48:47.714Z,95662.31
2019-01-23T05:51:54.698Z,95663.06
2019-01-23T05:55:01.610Z,95661.73
2019-01-23T05:58:10.087Z,95657.58
2019-01-23T06:01:17.818Z,95652.42
2019-01-23T06:04:25.080Z,95654.23
2019-01-23T06:07:32.017Z,95640.30
2019-01-23T06:10:39.038Z,95639.44
2019-01-23T06:13:45.986Z,95638.41
2019-01-23T06:16:52.988Z,95643.95
2019-01-23T06:19:59.886Z,95640.03
2019-01-23T06:23:06.852Z,95646.91
2019-01-23T06:26:14.038Z,95635.41
2019-01-23T06:29:21.402Z,95637.98
2019-01-23T06:32:28.422Z,95638.51
2019-01-23T06:35:35.338Z,95638.20
2019-01-23T06:38:42.262Z,95641.55
2019-01-23T06:41:49.222Z,95642.92
2019-01-23T06:44:56.125Z,95646.42
2019-01-23T06:48:03.076Z,95641.27
2019-01-23T06:51:10.109Z,95644.42
2019-01-23T06:54:22.287Z,95649.23
2019-01-23T06:57:29.202Z,95652.87
2019-01-23T07:00:36.132Z,95647.12
2019-01-23T07:03:43.056Z,95650.51
2019-01-23T07:06:50.505Z,95650.25
2019-01-23T07:09:57.421Z,95647.34
2019-01-23T07:13:04.364Z,95645.12
2019-01-23T07:16:11.555Z,95643.28
2019-01-23T07:19:19.198Z,95650.20
2019-01-23T07:22:26.233Z,95649.08
2019-01-23T07:25:33.177Z,95651.08
2019-01-23T07:28:40.089Z,95654.00
2019-01-23T07:31:47.091Z,95657.68
2019-01-23T07:34:54.043Z,95651.31
2019-01-23T07:38:01.316Z,95653.05
2019-01-23T07:41:08.243Z,95651.35
2019-01-23T07:44:17.076Z,95649.05
2019-01-23T07:47:23.995Z,95651.72
2019-01-23T07:50:31.282Z,95645.19
2019-01-23T07:53:38.202Z,95651.80
2019-01-23T07:56:45.162Z,95648.43
2019-01-23T07:59:52.086Z,95640.30
2019-01-23T08:02:59.937Z,95637.30
2019-01-23T08:06:06.870Z,95639.65
2019-01-23T08:09:14.429Z,95633.52
2019-01-23T08:12:21.368Z,95634.47
2019-01-23T08:15:36.563Z,95639.09
2019-01-23T08:18:43.485Z,95635.63
2019-01-23T08:21:50.764Z,95638.20
2019-01-23T08:24:57.663Z,95630.03
2019-01-23T08:28:05.003Z,95627.41
2019-01-23T08:31:14.363Z,95626.29
2019-01-23T08:34:21.339Z,95618.14
2019-01-23T08:37:28.515Z,95627.06
2019-01-23T08:40:35.437Z,95624.05
2019-01-23T08:43:42.329Z,95619.80
2019-01-23T08:46:49.315Z,95622.84
2019-01-23T08:49:56.198Z,95632.01
2019-01-23T08:53:03.171Z,95620.01
2019-01-23T08:56:10.048Z,95625.04
2019-01-23T08:59:17.004Z,95624.00
2019-01-23T09:02:23.975Z,95616.91
2019-01-23T09:05:30.897Z,95624.47
2019-01-23T09:08:37.983Z,95619.61
2019-01-23T09:11:45.403Z,95625.37
2019-01-23T09:14:52.332Z,95622.95
2019-01-23T09:17:59.281Z,95618.10
2019-01-23T09:21:06.171Z,95628.85
2019-01-23T09:24:14.794Z,95621.31
2019-01-23T09:27:24.431Z,95612.52
2019-01-23T09:30:54.581Z,95614.94
2019-01-23T09:34:51.221Z,95612.53
2019-01-23T09:38:19.760Z,95616.49
2019-01-23T09:42:41.677Z,95625.97
2019-01-23T09:46:35.172Z,95628.92
2019-01-23T09:50:20.541Z,95625.83
2019-01-23T09:53:46.354Z,95628.44
2019-01-23T09:56:53.235Z,95621.42
2019-01-23T10:00:00.264Z,95616.11
2019-01-23T10:03:07.371Z,95619.37
2019-01-23T10:06:14.300Z,95618.48
2019-01-23T10:09:23.314Z,95619.95
2019-01-23T10:12:30.663Z,95613.72
2019-01-23T10:15:51.029Z,95616.22
2019-01-23T10:18:57.944Z,95615.38
2019-01-23T10:22:04.837Z,95611.30
2019-01-23T10:25:22.979Z,95613.03
2019-01-23T10:28:30.059Z,95617.55
2019-01-23T10:31:37.046Z,95622.14
2019-01-23T10:34:43.933Z,95609.78
2019-01-23T10:37:50.864Z,95620.61
2019-01-23T10:40:57.753Z,95616.87
2019-01-23T10:44:04.982Z,95611.92
2019-01-23T10:47:11.947Z,95617.32
2019-01-23T10:50:19.107Z,95619.02
2019-01-23T10:53:25.911Z,95617.34
2019-01-23T10:56:32.827Z,95619.45
2019-01-23T10:59:39.715Z,95623.59
2019-01-23T11:02:46.727Z,95616.97
2019-01-23T11:05:53.803Z,95614.05
2019-01-23T11:09:01.012Z,95606.17
2019-01-23T11:12:09.565Z,95609.08
2019-01-23T11:15:17.133Z,95604.09
2019-01-23T11:18:26.377Z,95597.87
2019-01-23T11:21:33.279Z,95602.02
2019-01-23T11:24:40.159Z,95605.75
2019-01-23T11:27:47.955Z,95603.70
2019-01-23T11:30:54.747Z,95606.59
2019-01-23T11:34:01.607Z,95598.25
2019-01-23T11:37:08.452Z,95604.05
2019-01-23T11:40:25.618Z,95599.84
2019-01-23T11:43:32.494Z,95597.34
2019-01-23T11:46:39.337Z,95597.34
2019-01-23T11:49:46.199Z,95596.48
2019-01-23T11:52:54.742Z,95598.57
2019-01-23T11:56:01.619Z,95596.42
2019-01-23T11:59:08.545Z,95596.89
2019-01-23T12:02:15.546Z,95599.77
2019-01-23T12:05:24.951Z,95602.22
2019-01-23T12:08:31.827Z,95605.94
2019-01-23T12:11:38.740Z,95603.30
2019-01-23T12:14:45.627Z,95603.11
2019-01-23T12:17:53.203Z,95607.34
2019-01-23T12:21:00.110Z,95607.91
2019-01-23T12:24:07.457Z,95599.88
2019-01-23T12:27:17.576Z,95599.91
2019-01-23T12:30:31.070Z,95596.28
2019-01-23T12:33:37.948Z,95597.27
2019-01-23T12:36:46.087Z,95591.36
2019-01-23T12:39:52.974Z,95584.48
2019-01-23T12:43:00.010Z,95592.91
2019-01-23T12:46:07.035Z,95589.58
2019-01-23T12:49:14.055Z,95582.27
2019-01-23T12:52:21.532Z,95585.70
2019-01-23T12:55:28.653Z,95576.54
2019-01-23T12:58:36.648Z,95584.73
2019-01-23T13:01:44.068Z,95576.07
2019-01-23T13:04:50.939Z,95576.93
2019-01-23T13:07:57.888Z,95574.59
2019-01-23T13:11:05.214Z,95572.59
2019-01-23T13:14:12.467Z,95573.55
2019-01-23T13:17:19.355Z,95575.94
2019-01-23T13:20:28.257Z,95575.19
2019-01-23T13:23:36.436Z,95586.09
2019-01-23T13:26:43.430Z,95582.57
2019-01-23T13:29:51.419Z,95583.88
2019-01-23T13:32:58.518Z,95582.36
2019-01-23T13:36:06.064Z,95592.06
2019-01-23T13:39:19.300Z,95589.77
2019-01-23T13:42:31.565Z,95591.35
2019-01-23T13:45:41.833Z,95595.75
2019-01-23T13:48:48.970Z,95592.73
2019-01-23T13:51:55.894Z,95587.23
2019-01-23T13:55:02.788Z,95586.00
2019-01-23T13:58:11.602Z,95593.84
2019-01-23T14:01:18.746Z,95596.33
2019-01-23T14:04:26.215Z,95599.17
2019-01-23T14:07:33.123Z,95598.50
2019-01-23T14:10:40.037Z,95602.81
2019-01-23T14:13:46.916Z,95599.00
2019-01-23T14:16:53.861Z,95597.31
2019-01-23T14:20:00.763Z,95603.46
2019-01-23T14:23:22.148Z,95604.39
2019-01-23T14:26:29.745Z,95610.34
2019-01-23T14:29:36.750Z,95606.59
2019-01-23T14:32:43.651Z,95604.05
2019-01-23T14:35:51.012Z,95607.94
2019-01-23T14:38:57.912Z,95609.03
2019-01-23T14:42:04.916Z,95613.41
2019-01-23T14:45:12.579Z,95614.72
2019-01-23T14:48:20.795Z,95609.64
2019-01-23T14:51:27.671Z,95607.53
2019-01-23T14:54:34.586Z,95613.03
2019-01-23T14:57:41.899Z,95611.37
2019-01-23T15:00:48.967Z,95617.74
2019-01-23T15:03:55.899Z,95620.42
2019-01-23T15:07:03.104Z,95624.34
2019-01-23T15:10:15.331Z,95622.97
2019-01-23T15:13:22.253Z,95623.28
2019-01-23T15:16:29.141Z,95620.55
2019-01-23T15:19:37.467Z,95619.70
2019-01-23T15:22:45.710Z,95617.95
2019-01-23T15:25:54.829Z,95620.55
2019-01-23T15:29:02.504Z,95622.67
2019-01-23T15:32:09.508Z,95631.08
2019-01-23T15:35:16.930Z,95631.40
2019-01-23T15:38:24.281Z,95633.91
2019-01-23T15:41:31.411Z,95642.66
2019-01-23T15:44:38.329Z,95638.47
2019-01-23T15:47:45.230Z,95638.50
2019-01-23T15:50:54.960Z,95643.87
2019-01-23T15:54:01.945Z,95645.50
2019-01-23T15:57:08.855Z,95655.50
2019-01-23T16:00:20.062Z,95650.09
2019-01-23T16:03:27.310Z,95660.91
2019-01-23T16:06:34.372Z,95662.16
2019-01-23T16:09:41.282Z,95670.91
2019-01-23T16:12:48.380Z,95678.38
2019-01-23T16:15:55.360Z,95676.70
2019-01-23T16:19:02.398Z,95682.99
2019-01-23T16:22:11.421Z,95681.69
2019-01-23T16:25:18.544Z,95687.55
2019-01-23T16:28:26.371Z,95689.64
2019-01-23T16:31:34.576Z,95694.22
2019-01-23T16:34:41.833Z,95696.28
2019-01-23T16:37:48.921Z,95704.22
2019-01-23T16:40:57.033Z,95707.52
2019-01-23T16:44:04.016Z,95709.61
2019-01-23T16:47:10.996Z,95705.73
2019-01-23T16:50:26.096Z,95711.23
2019-01-23T16:53:43.462Z,95711.27
2019-01-23T16:56:53.066Z,95714.95
2019-01-23T17:00:00.093Z,95711.97
2019-01-23T17:03:07.448Z,95709.14
2019-01-23T17:06:15.924Z,95711.59
2019-01-23T17:09:23.041Z,95719.14
2019-01-23T17:12:29.976Z,95714.96
2019-01-23T17:15:37.160Z,95713.34
2019-01-23T17:18:44.078Z,95720.80
2019-01-23T17:21:51.228Z,95723.20
2019-01-23T17:24:59.271Z,95726.84
2019-01-23T17:28:08.594Z,95732.78
2019-01-23T17:31:24.056Z,95732.17
2019-01-23T17:34:33.512Z,95736.07
2019-01-23T17:37:45.373Z,95739.81
2019-01-23T17:40:54.458Z,95746.84
2019-01-23T17:44:02.892Z,95745.27
2019-01-23T17:47:11.610Z,95749.05
2019-01-23T17:50:21.679Z,95756.02
2019-01-23T17:53:30.517Z,95759.86
2019-01-23T17:56:41.469Z,95768.02
2019-01-23T18:00:10.095Z,95770.59
2019-01-23T18:03:18.722Z,95777.39
2019-01-23T18:06:27.368Z,95774.74
2019-01-23T18:09:35.620Z,95778.41
2019-01-23T18:12:44.167Z,95779.08
2019-01-23T18:15:51.330Z,95779.17
2019-01-23T18:18:58.313Z,95778.95
2019-01-23T18:22:05.811Z,95776.48
2019-01-23T18:25:13.883Z,95780.31
2019-01-23T18:28:20.848Z,95781.77
2019-01-23T18:32:04.548Z,95784.59
2019-01-23T18:35:43.485Z,95792.59
2019-01-23T18:39:30.664Z,95794.77
2019-01-23T18:43:32.596Z,95802.62
2019-01-23T18:47:22.636Z,95805.02
2019-01-23T18:51:12.572Z,95810.41
2019-01-23T18:54:19.448Z,95807.11
2019-01-23T18:57:28.757Z,95809.45
2019-01-23T19:00:35.880Z,95816.44
2019-01-23T19:03:43.799Z,95814.78
2019-01-23T19:06:51.990Z,95816.44
2019-01-23T19:09:58.964Z,95821.01
2019-01-23T19:13:06.068Z,95817.64
2019-01-23T19:16:13.402Z,95825.11
2019-01-23T19:19:20.280Z,95821.72
2019-01-23T19:22:28.278Z,95827.23
2019-01-23T19:25:35.244Z,95826.34
2019-01-23T19:28:43.201Z,95828.84
2019-01-23T19:31:51.756Z,95832.09
2019-01-23T19:34:58.738Z,95835.91
2019-01-23T19:38:06.119Z,95836.70
2019-01-23T19:41:12.976Z,95836.21
2019-01-23T19:44:19.945Z,95837.45
2019-01-23T19:47:26.867Z,95842.05
2019-01-23T19:50:33.935Z,95840.36
2019-01-23T19:53:41.068Z,95844.50
2019-01-23T19:56:48.139Z,95846.09
2019-01-23T19:59:55.039Z,95850.70
2019-01-23T20:03:01.992Z,95853.63
2019-01-23T20:06:08.908Z,95850.23
2019-01-23T20:09:15.993Z,95852.64
2019-01-23T20:12:22.918Z,95864.27
2019-01-23T20:15:29.823Z,95867.45
2019-01-23T20:18:36.975Z,95864.17
2019-01-23T20:21:43.894Z,95869.77
2019-01-23T20:24:51.026Z,95868.20
2019-01-23T20:27:58.008Z,95875.36
2019-01-23T20:31:04.932Z,95877.40
2019-01-23T20:34:12.150Z,95886.50
2019-01-23T20:37:23.373Z,95886.86
2019-01-23T20:40:27.847Z,95889.33
2019-01-23T20:43:38.160Z,95892.81
2019-01-23T20:46:47.694Z,95891.52
2019-01-23T20:49:55.743Z,95896.16
2019-01-23T20:53:02.741Z,95892.80
2019-01-23T20:56:09.656Z,95898.97
2019-01-23T20:59:16.692Z,95902.44
2019-01-23T21:02:23.656Z,95910.64
2019-01-23T21:05:30.611Z,95907.24
2019-01-23T21:08:37.988Z,95906.89
2019-01-23T21:11:44.856Z,95908.11
2019-01-23T21:14:51.860Z,95908.53
2019-01-23T21:17:58.761Z,95918.95
2019-01-23T21:21:05.715Z,95922.73
2019-01-23T21:24:12.588Z,95921.66
2019-01-23T21:27:19.436Z,95922.09
2019-01-23T21:30:27.831Z,95922.98
2019-01-23T21:33:42.097Z,95921.72
2019-01-23T21:36:46.558Z,95923.37
2019-01-23T21:39:53.388Z,95930.05
2019-01-23T21:43:02.978Z,95932.98
2019-01-23T21:46:09.883Z,95935.45
2019-01-23T21:49:16.742Z,95940.42
2019-01-23T21:52:23.669Z,95941.41
2019-01-23T21:55:30.562Z,95947.12
2019-01-23T21:58:37.644Z,95949.59
2019-01-23T22:01:44.747Z,95954.59
2019-01-23T22:04:51.673Z,95950.47
2019-01-23T22:07:58.710Z,95954.26
2019-01-23T22:11:05.731Z,95956.38
2019-01-23T22:14:12.645Z,95968.43
2019-01-23T22:17:19.492Z,95964.66
2019-01-23T22:20:26.594Z,95967.56
2019-01-23T22:23:35.659Z,95960.97
2019-01-23T22:26:42.702Z,95968.83
2019-01-23T22:29:49.876Z,95966.45
2019-01-23T22:32:56.747Z,95971.80
2019-01-23T22:36:03.651Z,95976.48
2019-01-23T22:39:11.030Z,95979.01
2019-01-23T22:42:17.925Z,95979.48
2019-01-23T22:45:24.808Z,95978.75
2019-01-23T22:48:31.743Z,95977.08
2019-01-23T22:51:38.662Z,95983.33
2019-01-23T22:54:45.599Z,95983.84
2019-01-23T22:57:54.548Z,95981.73
2019-01-23T23:01:33.728Z,95986.84
2019-01-23T23:04:41.815Z,95998.84
2019-01-23T23:07:49.162Z,95998.13
2019-01-23T23:10:58.905Z,96004.64
2019-01-23T23:14:06.536Z,96007.81
2019-01-23T23:17:13.418Z,96009.95
2019-01-23T23:20:20.332Z,96015.39
2019-01-23T23:23:27.211Z,96021.80
2019-01-23T23:26:34.148Z,96025.64
2019-01-23T23:29:41.021Z,96025.27
2019-01-23T23:32:49.492Z,96025.78
2019-01-23T23:35:57.646Z,96031.52
2019-01-23T23:39:06.654Z,96033.89
2019-01-23T23:42:13.886Z,96035.96
2019-01-23T23:45:20.958Z,96039.89
2019-01-23T23:48:27.749Z,96046.72
2019-01-23T23:51:34.658Z,96040.23
2019-01-23T23:54:41.536Z,96044.66
2019-01-23T23:57:48.815Z,96049.96
